Terminal Aerodrome Forecast
Issued by NWS

Home | Current Version | Previous Version | Text Only | Print | Product List | Glossary On
Versions: 1 2 3 4 5 6 7 8 9 10 11 12 13 14 15 16
675
FTUS42 KMLB 310526
TAFISM
TAF
KISM 310526Z 3106/0106 VRB03KT P6SM FEW080 SCT110 BKN150
     FM311400 VRB05KT P6SM FEW025 SCT035 SCT120
     FM312000 10008KT P6SM VCTS SCT035CB BKN250
     FM010000 14005KT P6SM FEW035 SCT100 BKN250
      AMD NOT SKED TIL 311100=

USA.gov is the U.S. government's official web portal to all federal, state and local government web resources and services.